sensor_id;sensor_type;location;lat;lon;timestamp;temperature;humidity
30336;DHT22;17142;47.990;7.846;2023-07-22T06:11:51;21.40;93.10
30336;DHT22;17142;47.990;7.846;2023-07-22T06:14:19;21.70;92.50
30336;DHT22;17142;47.990;7.846;2023-07-22T06:16:45;22.60;91.20
30336;DHT22;17142;47.990;7.846;2023-07-22T06:19:13;22.40;90.40
30336;DHT22;17142;47.990;7.846;2023-07-22T06:21:40;22.00;91.50
30336;DHT22;17142;47.990;7.846;2023-07-22T06:24:06;21.80;90.70
30336;DHT22;17142;47.990;7.846;2023-07-22T06:26:32;22.50;89.60
30336;DHT22;17142;47.990;7.846;2023-07-22T06:28:57;22.00;90.20
30336;DHT22;17142;47.990;7.846;2023-07-22T06:31:23;22.40;88.70
30336;DHT22;17142;47.990;7.846;2023-07-22T06:33:48;22.80;88.50
30336;DHT22;17142;47.990;7.846;2023-07-22T06:36:16;23.20;85.80
30336;DHT22;17142;47.990;7.846;2023-07-22T06:38:43;23.00;85.80
30336;DHT22;17142;47.990;7.846;2023-07-22T06:41:08;23.00;85.10
30336;DHT22;17142;47.990;7.846;2023-07-22T06:43:36;23.30;83.50
30336;DHT22;17142;47.990;7.846;2023-07-22T06:46:02;23.50;82.40
30336;DHT22;17142;47.990;7.846;2023-07-22T06:48:27;23.70;81.20
30336;DHT22;17142;47.990;7.846;2023-07-22T06:50:53;23.20;82.20
30336;DHT22;17142;47.990;7.846;2023-07-22T06:53:19;23.80;80.30
30336;DHT22;17142;47.990;7.846;2023-07-22T06:55:54;24.40;78.20
30336;DHT22;17142;47.990;7.846;2023-07-22T06:58:20;24.40;78.30
30336;DHT22;17142;47.990;7.846;2023-07-22T07:00:48;24.40;78.80
30336;DHT22;17142;47.990;7.846;2023-07-22T07:03:13;24.50;76.30
30336;DHT22;17142;47.990;7.846;2023-07-22T07:05:39;24.70;76.90
30336;DHT22;17142;47.990;7.846;2023-07-22T07:08:07;25.10;76.00
30336;DHT22;17142;47.990;7.846;2023-07-22T07:10:37;25.20;74.80
30336;DHT22;17142;47.990;7.846;2023-07-22T07:13:03;25.50;72.70
30336;DHT22;17142;47.990;7.846;2023-07-22T07:15:28;25.60;72.80
30336;DHT22;17142;47.990;7.846;2023-07-22T07:17:58;25.50;72.80
30336;DHT22;17142;47.990;7.846;2023-07-22T07:20:24;25.40;73.30
30336;DHT22;17142;47.990;7.846;2023-07-22T07:22:52;25.20;72.70
30336;DHT22;17142;47.990;7.846;2023-07-22T07:25:17;25.50;72.00
30336;DHT22;17142;47.990;7.846;2023-07-22T07:27:43;26.40;69.30
30336;DHT22;17142;47.990;7.846;2023-07-22T07:30:09;26.80;68.00
30336;DHT22;17142;47.990;7.846;2023-07-22T07:32:36;27.40;64.90
30336;DHT22;17142;47.990;7.846;2023-07-22T07:35:02;27.20;64.40
30336;DHT22;17142;47.990;7.846;2023-07-22T07:37:29;26.70;65.50
30336;DHT22;17142;47.990;7.846;2023-07-22T07:39:55;26.90;65.50
30336;DHT22;17142;47.990;7.846;2023-07-22T07:42:26;26.70;67.30
30336;DHT22;17142;47.990;7.846;2023-07-22T07:44:52;27.40;67.80
30336;DHT22;17142;47.990;7.846;2023-07-22T07:47:17;27.00;69.20
30336;DHT22;17142;47.990;7.846;2023-07-22T07:49:45;27.20;68.70
30336;DHT22;17142;47.990;7.846;2023-07-22T07:52:11;27.30;68.80
30336;DHT22;17142;47.990;7.846;2023-07-22T07:54:36;27.60;68.60
30336;DHT22;17142;47.990;7.846;2023-07-22T07:57:02;27.70;67.20
30336;DHT22;17142;47.990;7.846;2023-07-22T07:59:28;27.60;67.80
30336;DHT22;17142;47.990;7.846;2023-07-22T08:01:58;27.20;68.90
30336;DHT22;17142;47.990;7.846;2023-07-22T08:04:24;26.90;69.60
30336;DHT22;17142;47.990;7.846;2023-07-22T08:06:52;27.50;69.50
30336;DHT22;17142;47.990;7.846;2023-07-22T08:09:17;27.10;68.20
30336;DHT22;17142;47.990;7.846;2023-07-22T08:11:45;26.70;70.40
30336;DHT22;17142;47.990;7.846;2023-07-22T08:14:13;26.90;70.10
30336;DHT22;17142;47.990;7.846;2023-07-22T08:16:40;26.40;71.70
30336;DHT22;17142;47.990;7.846;2023-07-22T08:19:05;26.20;73.20
30336;DHT22;17142;47.990;7.846;2023-07-22T08:21:31;26.00;69.00
30336;DHT22;17142;47.990;7.846;2023-07-22T08:23:56;25.60;70.20
30336;DHT22;17142;47.990;7.846;2023-07-22T08:26:23;26.00;69.60
30336;DHT22;17142;47.990;7.846;2023-07-22T08:28:51;25.80;68.10
30336;DHT22;17142;47.990;7.846;2023-07-22T08:31:16;25.60;68.70
30336;DHT22;17142;47.990;7.846;2023-07-22T08:33:42;26.00;68.00
30336;DHT22;17142;47.990;7.846;2023-07-22T08:36:08;26.20;67.50
30336;DHT22;17142;47.990;7.846;2023-07-22T08:38:34;26.70;66.10
30336;DHT22;17142;47.990;7.846;2023-07-22T08:41:00;26.70;64.80
30336;DHT22;17142;47.990;7.846;2023-07-22T08:43:28;26.80;63.50
30336;DHT22;17142;47.990;7.846;2023-07-22T08:45:54;26.70;62.50
30336;DHT22;17142;47.990;7.846;2023-07-22T08:48:22;26.60;63.90
30336;DHT22;17142;47.990;7.846;2023-07-22T08:50:59;26.90;62.80
30336;DHT22;17142;47.990;7.846;2023-07-22T08:53:25;26.90;63.30
30336;DHT22;17142;47.990;7.846;2023-07-22T08:55:51;26.80;62.70
30336;DHT22;17142;47.990;7.846;2023-07-22T08:58:18;26.70;63.30
30336;DHT22;17142;47.990;7.846;2023-07-22T09:00:44;26.70;61.90
30336;DHT22;17142;47.990;7.846;2023-07-22T09:03:11;26.30;61.70
30336;DHT22;17142;47.990;7.846;2023-07-22T09:05:37;26.20;62.10
30336;DHT22;17142;47.990;7.846;2023-07-22T09:08:06;26.00;63.10
30336;DHT22;17142;47.990;7.846;2023-07-22T09:10:32;26.20;62.70
30336;DHT22;17142;47.990;7.846;2023-07-22T09:13:01;26.00;63.50
30336;DHT22;17142;47.990;7.846;2023-07-22T09:15:28;26.30;61.40
30336;DHT22;17142;47.990;7.846;2023-07-22T09:17:54;26.40;59.90
30336;DHT22;17142;47.990;7.846;2023-07-22T09:20:20;26.20;58.90
30336;DHT22;17142;47.990;7.846;2023-07-22T09:22:50;26.20;61.50
30336;DHT22;17142;47.990;7.846;2023-07-22T09:25:25;26.50;59.30
30336;DHT22;17142;47.990;7.846;2023-07-22T09:27:52;26.70;58.40
30336;DHT22;17142;47.990;7.846;2023-07-22T09:30:29;26.90;59.10
30336;DHT22;17142;47.990;7.846;2023-07-22T09:32:59;26.40;60.30
30336;DHT22;17142;47.990;7.846;2023-07-22T09:37:55;25.40;59.90
30336;DHT22;17142;47.990;7.846;2023-07-22T09:40:24;25.40;59.60
30336;DHT22;17142;47.990;7.846;2023-07-22T09:42:54;25.90;59.20
30336;DHT22;17142;47.990;7.846;2023-07-22T09:45:23;26.70;58.50
30336;DHT22;17142;47.990;7.846;2023-07-22T09:47:49;26.50;57.70
30336;DHT22;17142;47.990;7.846;2023-07-22T09:50:23;25.70;55.60
30336;DHT22;17142;47.990;7.846;2023-07-22T09:52:53;25.30;54.80
30336;DHT22;17142;47.990;7.846;2023-07-22T09:55:24;25.00;55.40
30336;DHT22;17142;47.990;7.846;2023-07-22T10:00:29;25.50;55.80
30336;DHT22;17142;47.990;7.846;2023-07-22T10:02:57;26.00;55.40
30336;DHT22;17142;47.990;7.846;2023-07-22T10:05:24;26.50;56.50
30336;DHT22;17142;47.990;7.846;2023-07-22T10:07:57;26.70;57.30
30336;DHT22;17142;47.990;7.846;2023-07-22T10:10:38;26.00;56.60
30336;DHT22;17142;47.990;7.846;2023-07-22T10:13:06;25.70;56.60
30336;DHT22;17142;47.990;7.846;2023-07-22T10:15:33;25.00;57.10
30336;DHT22;17142;47.990;7.846;2023-07-22T10:18:03;24.90;57.10
30336;DHT22;17142;47.990;7.846;2023-07-22T10:20:31;24.90;57.40
30336;DHT22;17142;47.990;7.846;2023-07-22T10:23:01;25.20;58.30
30336;DHT22;17142;47.990;7.846;2023-07-22T10:25:29;25.50;58.60
30336;DHT22;17142;47.990;7.846;2023-07-22T10:27:55;25.60;58.60
30336;DHT22;17142;47.990;7.846;2023-07-22T10:30:21;25.30;58.40
30336;DHT22;17142;47.990;7.846;2023-07-22T10:32:51;25.20;57.30
30336;DHT22;17142;47.990;7.846;2023-07-22T10:35:34;25.20;57.00
30336;DHT22;17142;47.990;7.846;2023-07-22T10:40:53;25.80;56.70
30336;DHT22;17142;47.990;7.846;2023-07-22T10:43:39;25.40;56.90
30336;DHT22;17142;47.990;7.846;2023-07-22T10:46:13;25.80;57.10
30336;DHT22;17142;47.990;7.846;2023-07-22T10:48:40;25.90;55.80
30336;DHT22;17142;47.990;7.846;2023-07-22T10:51:12;25.70;55.30
30336;DHT22;17142;47.990;7.846;2023-07-22T10:53:41;25.70;55.60
30336;DHT22;17142;47.990;7.846;2023-07-22T11:04:05;25.20;56.20
30336;DHT22;17142;47.990;7.846;2023-07-22T11:06:32;25.60;56.50
30336;DHT22;17142;47.990;7.846;2023-07-22T11:08:57;26.00;55.30
30336;DHT22;17142;47.990;7.846;2023-07-22T11:11:45;26.40;55.30
30336;DHT22;17142;47.990;7.846;2023-07-22T11:14:18;26.80;55.00
30336;DHT22;17142;47.990;7.846;2023-07-22T11:16:46;26.50;51.70
30336;DHT22;17142;47.990;7.846;2023-07-22T11:19:18;26.40;50.90
30336;DHT22;17142;47.990;7.846;2023-07-22T11:21:46;26.30;51.20
30336;DHT22;17142;47.990;7.846;2023-07-22T11:24:12;26.40;51.30
30336;DHT22;17142;47.990;7.846;2023-07-22T11:26:39;26.20;51.10
30336;DHT22;17142;47.990;7.846;2023-07-22T11:29:07;26.20;52.20
30336;DHT22;17142;47.990;7.846;2023-07-22T11:31:35;26.50;51.50
30336;DHT22;17142;47.990;7.846;2023-07-22T11:34:03;26.40;52.40
30336;DHT22;17142;47.990;7.846;2023-07-22T11:36:29;26.70;51.70
30336;DHT22;17142;47.990;7.846;2023-07-22T11:39:06;27.10;52.70
30336;DHT22;17142;47.990;7.846;2023-07-22T11:41:33;27.50;52.20
30336;DHT22;17142;47.990;7.846;2023-07-22T11:44:03;27.30;51.80
30336;DHT22;17142;47.990;7.846;2023-07-22T11:46:56;27.30;51.70
30336;DHT22;17142;47.990;7.846;2023-07-22T11:49:41;27.30;51.40
30336;DHT22;17142;47.990;7.846;2023-07-22T11:52:11;27.40;51.00
30336;DHT22;17142;47.990;7.846;2023-07-22T11:54:42;27.40;50.70
30336;DHT22;17142;47.990;7.846;2023-07-22T11:57:30;27.70;50.40
30336;DHT22;17142;47.990;7.846;2023-07-22T11:59:56;27.40;49.60
30336;DHT22;17142;47.990;7.846;2023-07-22T12:02:24;27.50;50.50
30336;DHT22;17142;47.990;7.846;2023-07-22T12:05:01;27.60;50.60
30336;DHT22;17142;47.990;7.846;2023-07-22T12:07:29;27.80;51.30
30336;DHT22;17142;47.990;7.846;2023-07-22T12:09:57;27.80;50.40
30336;DHT22;17142;47.990;7.846;2023-07-22T12:15:08;28.50;50.30
30336;DHT22;17142;47.990;7.846;2023-07-22T12:17:52;28.00;50.50
30336;DHT22;17142;47.990;7.846;2023-07-22T12:22:52;28.10;50.00
30336;DHT22;17142;47.990;7.846;2023-07-22T12:25:25;28.10;48.40
30336;DHT22;17142;47.990;7.846;2023-07-22T12:27:54;28.00;48.70
30336;DHT22;17142;47.990;7.846;2023-07-22T12:30:20;28.00;48.70
30336;DHT22;17142;47.990;7.846;2023-07-22T12:32:46;27.90;50.10
30336;DHT22;17142;47.990;7.846;2023-07-22T12:35:12;27.90;50.70
30336;DHT22;17142;47.990;7.846;2023-07-22T12:37:39;28.40;49.00
30336;DHT22;17142;47.990;7.846;2023-07-22T12:40:05;28.70;49.30
30336;DHT22;17142;47.990;7.846;2023-07-22T12:42:36;28.40;49.00
30336;DHT22;17142;47.990;7.846;2023-07-22T12:45:02;28.00;51.30
30336;DHT22;17142;47.990;7.846;2023-07-22T12:47:30;28.00;51.00
30336;DHT22;17142;47.990;7.846;2023-07-22T12:49:56;27.90;50.60
30336;DHT22;17142;47.990;7.846;2023-07-22T12:52:22;28.10;50.10
30336;DHT22;17142;47.990;7.846;2023-07-22T12:54:47;28.20;48.90
30336;DHT22;17142;47.990;7.846;2023-07-22T12:57:13;28.20;48.60
30336;DHT22;17142;47.990;7.846;2023-07-22T12:59:39;28.20;48.60
30336;DHT22;17142;47.990;7.846;2023-07-22T13:02:06;28.10;48.80
30336;DHT22;17142;47.990;7.846;2023-07-22T13:04:32;27.50;49.50
30336;DHT22;17142;47.990;7.846;2023-07-22T13:06:57;27.40;50.30
30336;DHT22;17142;47.990;7.846;2023-07-22T13:09:25;27.60;49.50
30336;DHT22;17142;47.990;7.846;2023-07-22T13:11:51;27.30;50.00
30336;DHT22;17142;47.990;7.846;2023-07-22T13:14:17;27.30;50.10
30336;DHT22;17142;47.990;7.846;2023-07-22T13:16:46;26.90;49.80
30336;DHT22;17142;47.990;7.846;2023-07-22T13:19:11;26.50;50.30
30336;DHT22;17142;47.990;7.846;2023-07-22T13:21:39;26.70;50.80
30336;DHT22;17142;47.990;7.846;2023-07-22T13:24:06;27.00;50.90
30336;DHT22;17142;47.990;7.846;2023-07-22T13:26:31;27.20;50.80
30336;DHT22;17142;47.990;7.846;2023-07-22T13:28:57;27.40;50.00
30336;DHT22;17142;47.990;7.846;2023-07-22T13:31:23;27.50;49.30
30336;DHT22;17142;47.990;7.846;2023-07-22T13:33:49;27.40;48.90
30336;DHT22;17142;47.990;7.846;2023-07-22T13:36:14;27.60;49.10
30336;DHT22;17142;47.990;7.846;2023-07-22T13:38:42;27.60;49.30
30336;DHT22;17142;47.990;7.846;2023-07-22T13:41:08;27.30;49.80
30336;DHT22;17142;47.990;7.846;2023-07-22T13:43:33;27.50;49.90
30336;DHT22;17142;47.990;7.846;2023-07-22T13:45:59;27.80;49.30
30336;DHT22;17142;47.990;7.846;2023-07-22T13:48:27;28.00;48.90
30336;DHT22;17142;47.990;7.846;2023-07-22T13:50:55;27.70;48.50
30336;DHT22;17142;47.990;7.846;2023-07-22T13:53:21;27.30;49.70
30336;DHT22;17142;47.990;7.846;2023-07-22T13:55:49;27.10;49.30
30336;DHT22;17142;47.990;7.846;2023-07-22T13:58:14;27.20;48.10
30336;DHT22;17142;47.990;7.846;2023-07-22T14:00:40;27.60;48.00
30336;DHT22;17142;47.990;7.846;2023-07-22T14:03:08;27.90;47.50
30336;DHT22;17142;47.990;7.846;2023-07-22T14:05:35;28.10;47.00
30336;DHT22;17142;47.990;7.846;2023-07-22T14:08:00;28.10;46.80
30336;DHT22;17142;47.990;7.846;2023-07-22T14:10:26;28.10;47.10
30336;DHT22;17142;47.990;7.846;2023-07-22T14:12:51;28.10;47.10
30336;DHT22;17142;47.990;7.846;2023-07-22T14:15:17;28.00;48.50
30336;DHT22;17142;47.990;7.846;2023-07-22T14:17:43;28.00;48.50
30336;DHT22;17142;47.990;7.846;2023-07-22T14:20:10;28.00;48.30
30336;DHT22;17142;47.990;7.846;2023-07-22T14:22:37;27.70;48.00
30336;DHT22;17142;47.990;7.846;2023-07-22T14:25:03;27.10;48.40
30336;DHT22;17142;47.990;7.846;2023-07-22T14:27:29;27.10;48.50
30336;DHT22;17142;47.990;7.846;2023-07-22T14:29:54;27.00;49.30
30336;DHT22;17142;47.990;7.846;2023-07-22T14:32:20;27.20;49.00
30336;DHT22;17142;47.990;7.846;2023-07-22T14:34:45;27.40;48.10
30336;DHT22;17142;47.990;7.846;2023-07-22T14:37:11;27.40;47.10
30336;DHT22;17142;47.990;7.846;2023-07-22T14:39:37;27.60;47.10
30336;DHT22;17142;47.990;7.846;2023-07-22T14:42:02;27.70;46.70
30336;DHT22;17142;47.990;7.846;2023-07-22T14:44:29;27.90;46.90
30336;DHT22;17142;47.990;7.846;2023-07-22T14:46:55;28.10;47.10
30336;DHT22;17142;47.990;7.846;2023-07-22T14:49:20;28.20;47.60
30336;DHT22;17142;47.990;7.846;2023-07-22T14:51:46;27.90;47.60
30336;DHT22;17142;47.990;7.846;2023-07-22T14:54:12;27.90;47.80
30336;DHT22;17142;47.990;7.846;2023-07-22T14:56:42;27.80;47.40
30336;DHT22;17142;47.990;7.846;2023-07-22T14:59:11;27.60;45.70
30336;DHT22;17142;47.990;7.846;2023-07-22T15:01:39;27.90;46.20
30336;DHT22;17142;47.990;7.846;2023-07-22T15:04:05;27.80;46.70
30336;DHT22;17142;47.990;7.846;2023-07-22T15:06:31;27.70;45.30
30336;DHT22;17142;47.990;7.846;2023-07-22T15:08:57;27.60;45.30
30336;DHT22;17142;47.990;7.846;2023-07-22T15:11:25;27.50;46.20
30336;DHT22;17142;47.990;7.846;2023-07-22T15:13:51;27.80;45.80
30336;DHT22;17142;47.990;7.846;2023-07-22T15:16:16;27.50;46.00
30336;DHT22;17142;47.990;7.846;2023-07-22T15:18:42;27.70;46.30
30336;DHT22;17142;47.990;7.846;2023-07-22T15:21:08;27.40;46.00
30336;DHT22;17142;47.990;7.846;2023-07-22T15:23:36;27.50;46.40
30336;DHT22;17142;47.990;7.846;2023-07-22T15:26:01;27.20;47.10
30336;DHT22;17142;47.990;7.846;2023-07-22T15:28:27;27.20;47.20
30336;DHT22;17142;47.990;7.846;2023-07-22T15:30:58;27.40;47.30
30336;DHT22;17142;47.990;7.846;2023-07-22T15:33:26;27.50;46.60
30336;DHT22;17142;47.990;7.846;2023-07-22T15:35:53;27.60;46.90
30336;DHT22;17142;47.990;7.846;2023-07-22T15:38:19;27.60;46.50
30336;DHT22;17142;47.990;7.846;2023-07-22T15:40:45;27.70;46.50
30336;DHT22;17142;47.990;7.846;2023-07-22T15:43:11;27.70;46.50
30336;DHT22;17142;47.990;7.846;2023-07-22T15:45:38;27.80;45.70
30336;DHT22;17142;47.990;7.846;2023-07-22T15:48:07;27.90;45.10
30336;DHT22;17142;47.990;7.846;2023-07-22T15:50:32;27.80;45.20
30336;DHT22;17142;47.990;7.846;2023-07-22T15:52:58;27.60;46.70
30336;DHT22;17142;47.990;7.846;2023-07-22T15:55:26;27.70;46.60
30336;DHT22;17142;47.990;7.846;2023-07-22T15:57:52;27.70;46.30
30336;DHT22;17142;47.990;7.846;2023-07-22T16:00:20;27.70;46.40
30336;DHT22;17142;47.990;7.846;2023-07-22T16:02:46;27.70;45.20
30336;DHT22;17142;47.990;7.846;2023-07-22T16:05:13;27.20;45.80
30336;DHT22;17142;47.990;7.846;2023-07-22T16:07:39;27.00;46.30
30336;DHT22;17142;47.990;7.846;2023-07-22T16:10:06;27.00;46.30
30336;DHT22;17142;47.990;7.846;2023-07-22T16:12:36;27.00;46.80
30336;DHT22;17142;47.990;7.846;2023-07-22T16:15:05;26.90;47.40
30336;DHT22;17142;47.990;7.846;2023-07-22T16:17:31;27.20;47.30
30336;DHT22;17142;47.990;7.846;2023-07-22T16:19:57;27.00;47.80
30336;DHT22;17142;47.990;7.846;2023-07-22T16:22:23;27.10;47.60
30336;DHT22;17142;47.990;7.846;2023-07-22T16:24:53;27.30;47.50
30336;DHT22;17142;47.990;7.846;2023-07-22T16:27:19;27.40;46.30
30336;DHT22;17142;47.990;7.846;2023-07-22T16:29:44;27.30;46.60
30336;DHT22;17142;47.990;7.846;2023-07-22T16:32:12;27.30;47.30
30336;DHT22;17142;47.990;7.846;2023-07-22T16:34:40;27.20;47.10
30336;DHT22;17142;47.990;7.846;2023-07-22T16:37:07;27.10;47.50
30336;DHT22;17142;47.990;7.846;2023-07-22T16:39:33;26.90;48.00
30336;DHT22;17142;47.990;7.846;2023-07-22T16:41:58;26.80;48.30
30336;DHT22;17142;47.990;7.846;2023-07-22T16:44:26;26.90;48.30
30336;DHT22;17142;47.990;7.846;2023-07-22T16:46:54;26.90;48.10
30336;DHT22;17142;47.990;7.846;2023-07-22T16:49:19;26.90;48.30
30336;DHT22;17142;47.990;7.846;2023-07-22T16:51:47;27.00;47.90
30336;DHT22;17142;47.990;7.846;2023-07-22T16:54:15;27.00;48.60
30336;DHT22;17142;47.990;7.846;2023-07-22T16:56:41;26.80;48.40
30336;DHT22;17142;47.990;7.846;2023-07-22T16:59:07;26.80;48.40
30336;DHT22;17142;47.990;7.846;2023-07-22T17:01:33;26.80;48.70
30336;DHT22;17142;47.990;7.846;2023-07-22T17:03:58;26.80;48.80
30336;DHT22;17142;47.990;7.846;2023-07-22T17:06:26;26.80;49.20
30336;DHT22;17142;47.990;7.846;2023-07-22T17:08:55;26.80;49.50
30336;DHT22;17142;47.990;7.846;2023-07-22T17:11:21;27.00;49.70
30336;DHT22;17142;47.990;7.846;2023-07-22T17:13:48;26.80;48.80
30336;DHT22;17142;47.990;7.846;2023-07-22T17:16:15;26.80;49.00
30336;DHT22;17142;47.990;7.846;2023-07-22T17:18:43;26.90;49.40
30336;DHT22;17142;47.990;7.846;2023-07-22T17:21:11;26.90;49.30
30336;DHT22;17142;47.990;7.846;2023-07-22T17:23:40;27.00;49.20
30336;DHT22;17142;47.990;7.846;2023-07-22T17:26:06;27.10;49.10
30336;DHT22;17142;47.990;7.846;2023-07-22T17:28:31;27.30;49.20
30336;DHT22;17142;47.990;7.846;2023-07-22T17:30:58;27.40;49.20
30336;DHT22;17142;47.990;7.846;2023-07-22T17:33:24;27.10;49.10
30336;DHT22;17142;47.990;7.846;2023-07-22T17:35:50;26.70;49.90
30336;DHT22;17142;47.990;7.846;2023-07-22T17:38:16;26.50;50.60
30336;DHT22;17142;47.990;7.846;2023-07-22T17:40:42;26.40;51.00
30336;DHT22;17142;47.990;7.846;2023-07-22T17:43:11;26.20;51.30
30336;DHT22;17142;47.990;7.846;2023-07-22T17:45:42;26.50;50.80
30336;DHT22;17142;47.990;7.846;2023-07-22T17:48:07;26.60;50.40
30336;DHT22;17142;47.990;7.846;2023-07-22T17:50:33;26.50;50.60
30336;DHT22;17142;47.990;7.846;2023-07-22T17:52:59;26.30;51.20
30336;DHT22;17142;47.990;7.846;2023-07-22T17:55:25;26.30;50.90
30336;DHT22;17142;47.990;7.846;2023-07-22T17:57:51;26.70;50.30
30336;DHT22;17142;47.990;7.846;2023-07-22T18:00:19;27.00;49.80
30336;DHT22;17142;47.990;7.846;2023-07-22T18:02:45;27.50;49.10
30336;DHT22;17142;47.990;7.846;2023-07-22T18:05:13;27.80;48.70
30336;DHT22;17142;47.990;7.846;2023-07-22T18:07:40;28.30;48.40
30336;DHT22;17142;47.990;7.846;2023-07-22T18:10:06;28.30;47.90
30336;DHT22;17142;47.990;7.846;2023-07-22T18:12:34;27.90;48.40
30336;DHT22;17142;47.990;7.846;2023-07-22T18:15:02;27.70;48.90
30336;DHT22;17142;47.990;7.846;2023-07-22T18:17:28;28.00;48.80
30336;DHT22;17142;47.990;7.846;2023-07-22T18:19:53;28.20;48.60
30336;DHT22;17142;47.990;7.846;2023-07-22T18:22:19;28.50;47.90
30336;DHT22;17142;47.990;7.846;2023-07-22T18:24:45;28.80;47.80
30336;DHT22;17142;47.990;7.846;2023-07-22T18:27:11;28.80;47.70
30336;DHT22;17142;47.990;7.846;2023-07-22T18:29:36;28.60;47.90
30336;DHT22;17142;47.990;7.846;2023-07-22T18:32:02;27.90;49.30
30336;DHT22;17142;47.990;7.846;2023-07-22T18:34:28;27.10;50.20
30336;DHT22;17142;47.990;7.846;2023-07-22T18:36:56;26.30;51.90
30336;DHT22;17142;47.990;7.846;2023-07-22T18:39:21;26.00;52.60
30336;DHT22;17142;47.990;7.846;2023-07-22T18:41:48;25.60;53.60
30336;DHT22;17142;47.990;7.846;2023-07-22T18:44:14;25.40;54.30
30336;DHT22;17142;47.990;7.846;2023-07-22T18:46:42;25.10;54.70
30336;DHT22;17142;47.990;7.846;2023-07-22T18:49:07;25.00;55.20
30336;DHT22;17142;47.990;7.846;2023-07-22T18:51:33;25.00;55.20
30336;DHT22;17142;47.990;7.846;2023-07-22T18:53:59;25.20;54.80
30336;DHT22;17142;47.990;7.846;2023-07-22T18:56:27;25.30;54.80
30336;DHT22;17142;47.990;7.846;2023-07-22T18:58:55;25.30;54.80
30336;DHT22;17142;47.990;7.846;2023-07-22T19:01:21;25.20;55.20
30336;DHT22;17142;47.990;7.846;2023-07-22T19:03:47;24.80;55.90
30336;DHT22;17142;47.990;7.846;2023-07-22T19:06:13;24.40;56.70
30336;DHT22;17142;47.990;7.846;2023-07-22T19:08:38;24.00;57.70
30336;DHT22;17142;47.990;7.846;2023-07-22T19:11:10;23.70;58.40
30336;DHT22;17142;47.990;7.846;2023-07-22T19:13:37;23.40;58.90
30336;DHT22;17142;47.990;7.846;2023-07-22T19:16:03;23.20;59.60
30336;DHT22;17142;47.990;7.846;2023-07-22T19:18:28;22.90;60.40
30336;DHT22;17142;47.990;7.846;2023-07-22T19:20:56;22.80;60.70
30336;DHT22;17142;47.990;7.846;2023-07-22T19:23:22;22.70;61.80
30336;DHT22;17142;47.990;7.846;2023-07-22T19:25:49;22.50;62.80
30336;DHT22;17142;47.990;7.846;2023-07-22T19:28:17;22.30;63.80
30336;DHT22;17142;47.990;7.846;2023-07-22T19:30:43;22.10;64.20
30336;DHT22;17142;47.990;7.846;2023-07-22T19:33:08;21.90;64.90
30336;DHT22;17142;47.990;7.846;2023-07-22T19:35:34;21.80;65.60
30336;DHT22;17142;47.990;7.846;2023-07-22T19:38:02;21.60;66.90
30336;DHT22;17142;47.990;7.846;2023-07-22T19:40:28;21.40;67.40
30336;DHT22;17142;47.990;7.846;2023-07-22T19:42:54;21.30;68.30
30336;DHT22;17142;47.990;7.846;2023-07-22T19:45:20;21.20;68.40
30336;DHT22;17142;47.990;7.846;2023-07-22T19:47:50;21.10;69.10
30336;DHT22;17142;47.990;7.846;2023-07-22T19:50:16;21.00;69.70
30336;DHT22;17142;47.990;7.846;2023-07-22T19:52:44;20.90;69.50
30336;DHT22;17142;47.990;7.846;2023-07-22T19:55:09;20.80;69.60
30336;DHT22;17142;47.990;7.846;2023-07-22T19:57:35;20.70;70.00
30336;DHT22;17142;47.990;7.846;2023-07-22T20:00:01;20.70;70.50
30336;DHT22;17142;47.990;7.846;2023-07-22T20:02:29;20.60;71.00
30336;DHT22;17142;47.990;7.846;2023-07-22T20:04:57;20.50;71.20
30336;DHT22;17142;47.990;7.846;2023-07-22T20:07:22;20.50;71.70
30336;DHT22;17142;47.990;7.846;2023-07-22T20:09:48;20.40;71.90
30336;DHT22;17142;47.990;7.846;2023-07-22T20:12:13;20.40;72.40
30336;DHT22;17142;47.990;7.846;2023-07-22T20:14:39;20.30;72.90
30336;DHT22;17142;47.990;7.846;2023-07-22T20:17:05;20.40;72.20
30336;DHT22;17142;47.990;7.846;2023-07-22T20:19:30;20.50;72.00
30336;DHT22;17142;47.990;7.846;2023-07-22T20:21:58;20.50;71.30
30336;DHT22;17142;47.990;7.846;2023-07-22T20:24:23;20.50;71.80
30336;DHT22;17142;47.990;7.846;2023-07-22T20:26:49;20.50;71.70
30336;DHT22;17142;47.990;7.846;2023-07-22T20:29:16;20.60;71.40
30336;DHT22;17142;47.990;7.846;2023-07-22T20:31:42;20.60;71.00
30336;DHT22;17142;47.990;7.846;2023-07-22T20:34:10;20.50;71.40
30336;DHT22;17142;47.990;7.846;2023-07-22T20:36:36;20.40;71.70
30336;DHT22;17142;47.990;7.846;2023-07-22T20:39:01;20.60;71.40
30336;DHT22;17142;47.990;7.846;2023-07-22T20:41:27;20.60;71.00
30336;DHT22;17142;47.990;7.846;2023-07-22T20:43:53;20.60;71.00
30336;DHT22;17142;47.990;7.846;2023-07-22T20:46:20;20.60;71.00
30336;DHT22;17142;47.990;7.846;2023-07-22T20:48:46;20.40;71.60
30336;DHT22;17142;47.990;7.846;2023-07-22T20:51:12;20.30;71.60
30336;DHT22;17142;47.990;7.846;2023-07-22T20:53:42;20.20;71.70
30336;DHT22;17142;47.990;7.846;2023-07-22T20:56:10;20.10;72.50
30336;DHT22;17142;47.990;7.846;2023-07-22T20:58:38;20.20;72.90
30336;DHT22;17142;47.990;7.846;2023-07-22T21:01:03;20.10;72.80
30336;DHT22;17142;47.990;7.846;2023-07-22T21:03:29;20.20;72.80
30336;DHT22;17142;47.990;7.846;2023-07-22T21:05:57;20.30;72.50
30336;DHT22;17142;47.990;7.846;2023-07-22T21:08:24;20.30;72.50
30336;DHT22;17142;47.990;7.846;2023-07-22T21:10:54;20.30;72.20
